sensor_id;sensor_type;location;lat;lon;timestamp;P1;durP1;ratioP1;P2;durP2;ratioP2
6269;SDS011;3168;51.684;6.954;2024-01-11T00:01:08;8.63;;;5.60;;
6269;SDS011;3168;51.684;6.954;2024-01-11T00:03:31;10.43;;;7.47;;
6269;SDS011;3168;51.684;6.954;2024-01-11T00:05:56;15.33;;;5.77;;
6269;SDS011;3168;51.684;6.954;2024-01-11T00:08:23;4.80;;;4.40;;
6269;SDS011;3168;51.684;6.954;2024-01-11T00:10:49;4.33;;;3.90;;
6269;SDS011;3168;51.684;6.954;2024-01-11T00:13:15;9.37;;;4.40;;
6269;SDS011;3168;51.684;6.954;2024-01-11T00:15:41;7.03;;;3.87;;
6269;SDS011;3168;51.684;6.954;2024-01-11T00:18:07;6.60;;;4.80;;
6269;SDS011;3168;51.684;6.954;2024-01-11T00:20:33;3.43;;;2.43;;
6269;SDS011;3168;51.684;6.954;2024-01-11T00:22:59;5.53;;;3.53;;
6269;SDS011;3168;51.684;6.954;2024-01-11T00:25:24;5.07;;;4.73;;
6269;SDS011;3168;51.684;6.954;2024-01-11T00:27:51;7.00;;;4.40;;
6269;SDS011;3168;51.684;6.954;2024-01-11T00:30:17;6.03;;;5.50;;
6269;SDS011;3168;51.684;6.954;2024-01-11T00:32:43;9.40;;;4.13;;
6269;SDS011;3168;51.684;6.954;2024-01-11T00:35:09;3.37;;;1.93;;
6269;SDS011;3168;51.684;6.954;2024-01-11T00:37:35;10.60;;;5.40;;
6269;SDS011;3168;51.684;6.954;2024-01-11T00:40:01;5.20;;;4.63;;
6269;SDS011;3168;51.684;6.954;2024-01-11T00:42:27;6.13;;;4.07;;
6269;SDS011;3168;51.684;6.954;2024-01-11T00:44:53;4.07;;;3.90;;
6269;SDS011;3168;51.684;6.954;2024-01-11T00:47:18;3.77;;;3.47;;
6269;SDS011;3168;51.684;6.954;2024-01-11T00:49:44;4.77;;;4.37;;
6269;SDS011;3168;51.684;6.954;2024-01-11T00:52:10;13.90;;;3.97;;
6269;SDS011;3168;51.684;6.954;2024-01-11T00:54:36;4.20;;;3.43;;
6269;SDS011;3168;51.684;6.954;2024-01-11T00:57:02;3.23;;;3.10;;
6269;SDS011;3168;51.684;6.954;2024-01-11T00:59:28;3.10;;;1.40;;
6269;SDS011;3168;51.684;6.954;2024-01-11T01:01:54;3.33;;;3.10;;
6269;SDS011;3168;51.684;6.954;2024-01-11T01:04:20;6.07;;;4.37;;
6269;SDS011;3168;51.684;6.954;2024-01-11T01:06:45;7.17;;;4.80;;
6269;SDS011;3168;51.684;6.954;2024-01-11T01:09:11;12.27;;;5.00;;
6269;SDS011;3168;51.684;6.954;2024-01-11T01:11:37;18.40;;;6.47;;
6269;SDS011;3168;51.684;6.954;2024-01-11T01:14:04;2.08;;;1.30;;
6269;SDS011;3168;51.684;6.954;2024-01-11T01:16:30;7.10;;;3.60;;
6269;SDS011;3168;51.684;6.954;2024-01-11T01:18:55;4.90;;;4.20;;
6269;SDS011;3168;51.684;6.954;2024-01-11T01:21:21;4.83;;;3.23;;
6269;SDS011;3168;51.684;6.954;2024-01-11T01:23:47;4.23;;;3.83;;
6269;SDS011;3168;51.684;6.954;2024-01-11T01:26:14;17.03;;;4.90;;
6269;SDS011;3168;51.684;6.954;2024-01-11T01:28:40;3.03;;;2.73;;
6269;SDS011;3168;51.684;6.954;2024-01-11T01:31:05;3.07;;;2.97;;
6269;SDS011;3168;51.684;6.954;2024-01-11T01:33:31;3.37;;;3.20;;
6269;SDS011;3168;51.684;6.954;2024-01-11T01:35:57;5.10;;;4.80;;
6269;SDS011;3168;51.684;6.954;2024-01-11T01:38:23;3.90;;;3.00;;
6269;SDS011;3168;51.684;6.954;2024-01-11T01:40:49;5.13;;;3.30;;
6269;SDS011;3168;51.684;6.954;2024-01-11T01:43:15;3.23;;;3.03;;
6269;SDS011;3168;51.684;6.954;2024-01-11T01:45:41;4.63;;;4.10;;
6269;SDS011;3168;51.684;6.954;2024-01-11T01:48:07;9.03;;;3.83;;
6269;SDS011;3168;51.684;6.954;2024-01-11T01:50:33;3.37;;;2.77;;
6269;SDS011;3168;51.684;6.954;2024-01-11T01:52:59;5.70;;;4.63;;
6269;SDS011;3168;51.684;6.954;2024-01-11T01:55:25;4.20;;;4.00;;
6269;SDS011;3168;51.684;6.954;2024-01-11T01:57:50;7.03;;;6.27;;
6269;SDS011;3168;51.684;6.954;2024-01-11T02:00:16;6.27;;;3.33;;
6269;SDS011;3168;51.684;6.954;2024-01-11T02:02:43;3.87;;;3.67;;
6269;SDS011;3168;51.684;6.954;2024-01-11T02:05:08;6.83;;;5.03;;
6269;SDS011;3168;51.684;6.954;2024-01-11T02:07:34;7.33;;;3.13;;
6269;SDS011;3168;51.684;6.954;2024-01-11T02:10:00;7.70;;;4.33;;
6269;SDS011;3168;51.684;6.954;2024-01-11T02:12:26;13.43;;;3.03;;
6269;SDS011;3168;51.684;6.954;2024-01-11T02:14:53;5.17;;;4.97;;
6269;SDS011;3168;51.684;6.954;2024-01-11T02:17:17;3.60;;;2.50;;
6269;SDS011;3168;51.684;6.954;2024-01-11T02:19:43;6.33;;;3.00;;
6269;SDS011;3168;51.684;6.954;2024-01-11T02:22:12;2.80;;;2.63;;
6269;SDS011;3168;51.684;6.954;2024-01-11T02:24:35;2.43;;;2.33;;
6269;SDS011;3168;51.684;6.954;2024-01-11T02:27:02;4.00;;;3.27;;
6269;SDS011;3168;51.684;6.954;2024-01-11T02:29:27;3.60;;;3.43;;
6269;SDS011;3168;51.684;6.954;2024-01-11T02:31:53;6.00;;;5.43;;
6269;SDS011;3168;51.684;6.954;2024-01-11T02:34:19;17.63;;;5.23;;
6269;SDS011;3168;51.684;6.954;2024-01-11T02:36:45;2.83;;;2.63;;
6269;SDS011;3168;51.684;6.954;2024-01-11T02:39:11;7.50;;;3.07;;
6269;SDS011;3168;51.684;6.954;2024-01-11T02:41:37;7.43;;;4.20;;
6269;SDS011;3168;51.684;6.954;2024-01-11T02:44:03;2.20;;;2.10;;
6269;SDS011;3168;51.684;6.954;2024-01-11T02:46:29;4.83;;;2.93;;
6269;SDS011;3168;51.684;6.954;2024-01-11T02:48:55;6.47;;;5.67;;
6269;SDS011;3168;51.684;6.954;2024-01-11T02:51:21;3.00;;;2.53;;
6269;SDS011;3168;51.684;6.954;2024-01-11T02:53:47;5.07;;;2.67;;
6269;SDS011;3168;51.684;6.954;2024-01-11T02:56:13;3.80;;;3.50;;
6269;SDS011;3168;51.684;6.954;2024-01-11T02:58:39;6.60;;;3.40;;
6269;SDS011;3168;51.684;6.954;2024-01-11T03:01:05;4.80;;;4.40;;
6269;SDS011;3168;51.684;6.954;2024-01-11T03:03:30;3.07;;;2.87;;
6269;SDS011;3168;51.684;6.954;2024-01-11T03:05:56;10.10;;;2.37;;
6269;SDS011;3168;51.684;6.954;2024-01-11T03:08:22;2.93;;;2.80;;
6269;SDS011;3168;51.684;6.954;2024-01-11T03:10:48;10.10;;;4.70;;
6269;SDS011;3168;51.684;6.954;2024-01-11T03:13:14;5.20;;;4.83;;
6269;SDS011;3168;51.684;6.954;2024-01-11T03:15:40;4.17;;;3.87;;
6269;SDS011;3168;51.684;6.954;2024-01-11T03:18:06;5.70;;;3.03;;
6269;SDS011;3168;51.684;6.954;2024-01-11T03:20:32;5.30;;;4.07;;
6269;SDS011;3168;51.684;6.954;2024-01-11T03:22:57;4.83;;;3.17;;
6269;SDS011;3168;51.684;6.954;2024-01-11T03:25:23;4.80;;;4.40;;
6269;SDS011;3168;51.684;6.954;2024-01-11T03:27:49;3.90;;;3.63;;
6269;SDS011;3168;51.684;6.954;2024-01-11T03:30:15;7.50;;;5.53;;
6269;SDS011;3168;51.684;6.954;2024-01-11T03:32:41;5.40;;;3.67;;
6269;SDS011;3168;51.684;6.954;2024-01-11T03:35:07;3.30;;;3.00;;
6269;SDS011;3168;51.684;6.954;2024-01-11T03:37:33;4.47;;;3.73;;
6269;SDS011;3168;51.684;6.954;2024-01-11T03:40:00;4.00;;;3.57;;
6269;SDS011;3168;51.684;6.954;2024-01-11T03:42:25;3.90;;;3.70;;
6269;SDS011;3168;51.684;6.954;2024-01-11T03:44:51;5.27;;;3.80;;
6269;SDS011;3168;51.684;6.954;2024-01-11T03:47:17;3.93;;;3.63;;
6269;SDS011;3168;51.684;6.954;2024-01-11T03:49:43;6.63;;;5.50;;
6269;SDS011;3168;51.684;6.954;2024-01-11T03:52:08;2.33;;;2.17;;
6269;SDS011;3168;51.684;6.954;2024-01-11T03:54:34;7.63;;;4.43;;
6269;SDS011;3168;51.684;6.954;2024-01-11T03:57:00;3.90;;;3.60;;
6269;SDS011;3168;51.684;6.954;2024-01-11T03:59:26;4.83;;;4.33;;
6269;SDS011;3168;51.684;6.954;2024-01-11T04:01:52;4.30;;;3.30;;
6269;SDS011;3168;51.684;6.954;2024-01-11T04:04:18;4.83;;;4.40;;
6269;SDS011;3168;51.684;6.954;2024-01-11T04:06:44;2.67;;;2.57;;
6269;SDS011;3168;51.684;6.954;2024-01-11T04:11:45;4.13;;;3.80;;
6269;SDS011;3168;51.684;6.954;2024-01-11T04:14:10;6.97;;;6.10;;
6269;SDS011;3168;51.684;6.954;2024-01-11T04:16:40;15.03;;;4.23;;
6269;SDS011;3168;51.684;6.954;2024-01-11T04:19:05;11.80;;;3.50;;
6269;SDS011;3168;51.684;6.954;2024-01-11T04:21:31;4.00;;;3.70;;
6269;SDS011;3168;51.684;6.954;2024-01-11T04:23:57;7.37;;;3.87;;
6269;SDS011;3168;51.684;6.954;2024-01-11T04:26:23;6.17;;;5.47;;
6269;SDS011;3168;51.684;6.954;2024-01-11T04:28:49;4.23;;;4.07;;
6269;SDS011;3168;51.684;6.954;2024-01-11T04:31:15;5.53;;;4.10;;
6269;SDS011;3168;51.684;6.954;2024-01-11T04:33:41;8.93;;;2.30;;
6269;SDS011;3168;51.684;6.954;2024-01-11T04:36:07;4.83;;;3.00;;
6269;SDS011;3168;51.684;6.954;2024-01-11T04:38:32;5.70;;;4.27;;
6269;SDS011;3168;51.684;6.954;2024-01-11T04:40:58;5.83;;;5.30;;
6269;SDS011;3168;51.684;6.954;2024-01-11T04:43:24;3.03;;;2.57;;
6269;SDS011;3168;51.684;6.954;2024-01-11T04:45:51;8.80;;;5.07;;
6269;SDS011;3168;51.684;6.954;2024-01-11T04:48:17;2.63;;;2.53;;
6269;SDS011;3168;51.684;6.954;2024-01-11T04:50:44;4.27;;;2.00;;
6269;SDS011;3168;51.684;6.954;2024-01-11T04:53:09;4.27;;;3.90;;
6269;SDS011;3168;51.684;6.954;2024-01-11T04:55:35;2.10;;;2.00;;
6269;SDS011;3168;51.684;6.954;2024-01-11T04:58:01;3.60;;;3.23;;
6269;SDS011;3168;51.684;6.954;2024-01-11T05:00:27;6.73;;;4.27;;
6269;SDS011;3168;51.684;6.954;2024-01-11T05:02:52;13.67;;;3.43;;
6269;SDS011;3168;51.684;6.954;2024-01-11T05:05:19;3.97;;;3.77;;
6269;SDS011;3168;51.684;6.954;2024-01-11T05:07:45;8.83;;;4.53;;
6269;SDS011;3168;51.684;6.954;2024-01-11T05:10:11;4.77;;;4.47;;
6269;SDS011;3168;51.684;6.954;2024-01-11T05:12:37;6.40;;;4.03;;
6269;SDS011;3168;51.684;6.954;2024-01-11T05:15:03;3.10;;;3.00;;
6269;SDS011;3168;51.684;6.954;2024-01-11T05:17:29;4.20;;;2.53;;
6269;SDS011;3168;51.684;6.954;2024-01-11T05:19:55;5.87;;;3.37;;
6269;SDS011;3168;51.684;6.954;2024-01-11T05:22:20;5.13;;;4.63;;
6269;SDS011;3168;51.684;6.954;2024-01-11T05:24:47;5.67;;;5.00;;
6269;SDS011;3168;51.684;6.954;2024-01-11T05:27:13;4.37;;;4.07;;
6269;SDS011;3168;51.684;6.954;2024-01-11T05:29:39;27.47;;;3.57;;
6269;SDS011;3168;51.684;6.954;2024-01-11T05:32:05;4.47;;;4.07;;
6269;SDS011;3168;51.684;6.954;2024-01-11T05:34:31;5.10;;;4.67;;
6269;SDS011;3168;51.684;6.954;2024-01-11T05:36:57;2.80;;;2.60;;
6269;SDS011;3168;51.684;6.954;2024-01-11T05:39:23;6.00;;;5.50;;
6269;SDS011;3168;51.684;6.954;2024-01-11T05:41:49;4.40;;;4.10;;
6269;SDS011;3168;51.684;6.954;2024-01-11T05:44:14;3.93;;;3.60;;
6269;SDS011;3168;51.684;6.954;2024-01-11T05:46:40;7.67;;;5.00;;
6269;SDS011;3168;51.684;6.954;2024-01-11T05:49:06;7.70;;;5.90;;
6269;SDS011;3168;51.684;6.954;2024-01-11T05:51:32;4.57;;;4.27;;
6269;SDS011;3168;51.684;6.954;2024-01-11T05:53:58;4.07;;;3.07;;
6269;SDS011;3168;51.684;6.954;2024-01-11T05:56:24;5.00;;;4.70;;
6269;SDS011;3168;51.684;6.954;2024-01-11T05:58:49;4.70;;;3.13;;
6269;SDS011;3168;51.684;6.954;2024-01-11T06:01:15;4.93;;;4.80;;
6269;SDS011;3168;51.684;6.954;2024-01-11T06:03:41;2.00;;;1.90;;
6269;SDS011;3168;51.684;6.954;2024-01-11T06:06:07;3.23;;;2.93;;
6269;SDS011;3168;51.684;6.954;2024-01-11T06:08:33;2.27;;;2.07;;
6269;SDS011;3168;51.684;6.954;2024-01-11T06:10:59;14.43;;;3.43;;
6269;SDS011;3168;51.684;6.954;2024-01-11T06:13:25;3.90;;;3.63;;
6269;SDS011;3168;51.684;6.954;2024-01-11T06:15:51;3.33;;;3.08;;
6269;SDS011;3168;51.684;6.954;2024-01-11T06:18:17;3.87;;;3.30;;
6269;SDS011;3168;51.684;6.954;2024-01-11T06:20:42;6.27;;;2.60;;
6269;SDS011;3168;51.684;6.954;2024-01-11T06:23:08;11.10;;;3.80;;
6269;SDS011;3168;51.684;6.954;2024-01-11T06:25:34;7.47;;;4.13;;
6269;SDS011;3168;51.684;6.954;2024-01-11T06:28:00;4.90;;;3.60;;
6269;SDS011;3168;51.684;6.954;2024-01-11T06:30:26;8.10;;;5.63;;
6269;SDS011;3168;51.684;6.954;2024-01-11T06:32:52;7.60;;;5.80;;
6269;SDS011;3168;51.684;6.954;2024-01-11T06:35:18;23.60;;;3.30;;
6269;SDS011;3168;51.684;6.954;2024-01-11T06:37:44;4.03;;;3.83;;
6269;SDS011;3168;51.684;6.954;2024-01-11T06:40:10;8.20;;;4.20;;
6269;SDS011;3168;51.684;6.954;2024-01-11T06:42:36;5.37;;;4.07;;
6269;SDS011;3168;51.684;6.954;2024-01-11T06:45:02;3.50;;;3.30;;
6269;SDS011;3168;51.684;6.954;2024-01-11T06:47:28;2.77;;;2.67;;
6269;SDS011;3168;51.684;6.954;2024-01-11T06:49:55;3.03;;;1.80;;
6269;SDS011;3168;51.684;6.954;2024-01-11T06:52:21;5.43;;;3.50;;
6269;SDS011;3168;51.684;6.954;2024-01-11T06:54:47;18.80;;;3.63;;
6269;SDS011;3168;51.684;6.954;2024-01-11T06:57:13;2.80;;;2.70;;
6269;SDS011;3168;51.684;6.954;2024-01-11T06:59:39;3.13;;;2.93;;
6269;SDS011;3168;51.684;6.954;2024-01-11T07:02:05;2.30;;;2.20;;
6269;SDS011;3168;51.684;6.954;2024-01-11T07:04:30;5.40;;;2.50;;
6269;SDS011;3168;51.684;6.954;2024-01-11T07:06:56;2.40;;;2.40;;
6269;SDS011;3168;51.684;6.954;2024-01-11T07:09:22;4.63;;;2.87;;
6269;SDS011;3168;51.684;6.954;2024-01-11T07:11:48;5.97;;;3.53;;
6269;SDS011;3168;51.684;6.954;2024-01-11T07:14:14;7.27;;;4.67;;
6269;SDS011;3168;51.684;6.954;2024-01-11T07:16:40;5.68;;;3.55;;
6269;SDS011;3168;51.684;6.954;2024-01-11T07:19:06;4.00;;;3.63;;
6269;SDS011;3168;51.684;6.954;2024-01-11T07:21:32;3.27;;;3.07;;
6269;SDS011;3168;51.684;6.954;2024-01-11T07:23:59;6.77;;;3.73;;
6269;SDS011;3168;51.684;6.954;2024-01-11T07:26:25;2.93;;;2.10;;
6269;SDS011;3168;51.684;6.954;2024-01-11T07:28:51;3.90;;;3.27;;
6269;SDS011;3168;51.684;6.954;2024-01-11T07:31:16;7.50;;;3.00;;
6269;SDS011;3168;51.684;6.954;2024-01-11T07:33:43;2.83;;;2.73;;
6269;SDS011;3168;51.684;6.954;2024-01-11T07:36:08;2.73;;;2.53;;
6269;SDS011;3168;51.684;6.954;2024-01-11T07:38:34;6.50;;;5.30;;
6269;SDS011;3168;51.684;6.954;2024-01-11T07:41:00;7.73;;;5.97;;
6269;SDS011;3168;51.684;6.954;2024-01-11T07:43:26;3.90;;;3.57;;
6269;SDS011;3168;51.684;6.954;2024-01-11T07:45:52;5.20;;;4.70;;
6269;SDS011;3168;51.684;6.954;2024-01-11T07:48:18;3.63;;;3.33;;
6269;SDS011;3168;51.684;6.954;2024-01-11T07:50:44;5.07;;;4.77;;
6269;SDS011;3168;51.684;6.954;2024-01-11T07:53:10;12.00;;;3.87;;
6269;SDS011;3168;51.684;6.954;2024-01-11T07:55:36;2.80;;;2.70;;
6269;SDS011;3168;51.684;6.954;2024-01-11T07:58:02;19.97;;;5.47;;
6269;SDS011;3168;51.684;6.954;2024-01-11T08:00:27;10.10;;;6.13;;
6269;SDS011;3168;51.684;6.954;2024-01-11T08:02:53;7.37;;;6.00;;
6269;SDS011;3168;51.684;6.954;2024-01-11T08:05:19;5.20;;;4.13;;
6269;SDS011;3168;51.684;6.954;2024-01-11T08:07:45;5.40;;;3.57;;
6269;SDS011;3168;51.684;6.954;2024-01-11T08:10:11;3.80;;;3.60;;
6269;SDS011;3168;51.684;6.954;2024-01-11T08:12:37;3.63;;;3.33;;
6269;SDS011;3168;51.684;6.954;2024-01-11T08:15:03;4.30;;;3.93;;
6269;SDS011;3168;51.684;6.954;2024-01-11T08:17:29;1.87;;;1.77;;
6269;SDS011;3168;51.684;6.954;2024-01-11T08:19:55;4.20;;;3.93;;
6269;SDS011;3168;51.684;6.954;2024-01-11T08:22:21;7.90;;;4.23;;
6269;SDS011;3168;51.684;6.954;2024-01-11T08:24:47;3.30;;;3.10;;
6269;SDS011;3168;51.684;6.954;2024-01-11T08:27:13;4.33;;;2.57;;
6269;SDS011;3168;51.684;6.954;2024-01-11T08:29:39;2.97;;;2.77;;
6269;SDS011;3168;51.684;6.954;2024-01-11T08:32:05;6.53;;;4.87;;
6269;SDS011;3168;51.684;6.954;2024-01-11T08:34:31;9.63;;;4.07;;
6269;SDS011;3168;51.684;6.954;2024-01-11T08:36:56;2.90;;;2.70;;
6269;SDS011;3168;51.684;6.954;2024-01-11T08:39:22;6.47;;;5.83;;
6269;SDS011;3168;51.684;6.954;2024-01-11T08:41:48;7.17;;;6.57;;
6269;SDS011;3168;51.684;6.954;2024-01-11T08:44:14;5.70;;;4.27;;
6269;SDS011;3168;51.684;6.954;2024-01-11T08:46:40;3.90;;;3.80;;
6269;SDS011;3168;51.684;6.954;2024-01-11T08:49:06;9.13;;;3.63;;
6269;SDS011;3168;51.684;6.954;2024-01-11T08:51:32;3.63;;;3.10;;
6269;SDS011;3168;51.684;6.954;2024-01-11T08:53:58;2.17;;;1.90;;
6269;SDS011;3168;51.684;6.954;2024-01-11T08:56:23;8.00;;;4.80;;
6269;SDS011;3168;51.684;6.954;2024-01-11T08:58:49;11.87;;;5.67;;
6269;SDS011;3168;51.684;6.954;2024-01-11T09:01:15;12.10;;;6.67;;
6269;SDS011;3168;51.684;6.954;2024-01-11T09:03:41;3.77;;;2.73;;
6269;SDS011;3168;51.684;6.954;2024-01-11T09:06:07;4.40;;;4.20;;
6269;SDS011;3168;51.684;6.954;2024-01-11T09:08:33;4.20;;;3.50;;
6269;SDS011;3168;51.684;6.954;2024-01-11T09:10:59;9.53;;;5.53;;
6269;SDS011;3168;51.684;6.954;2024-01-11T09:13:24;3.83;;;2.20;;
6269;SDS011;3168;51.684;6.954;2024-01-11T09:15:53;15.93;;;4.18;;
6269;SDS011;3168;51.684;6.954;2024-01-11T09:18:19;6.97;;;5.20;;
6269;SDS011;3168;51.684;6.954;2024-01-11T09:20:45;5.20;;;4.80;;
6269;SDS011;3168;51.684;6.954;2024-01-11T09:23:11;7.87;;;6.10;;
6269;SDS011;3168;51.684;6.954;2024-01-11T09:25:37;40.53;;;6.70;;
6269;SDS011;3168;51.684;6.954;2024-01-11T09:28:03;7.77;;;7.07;;
6269;SDS011;3168;51.684;6.954;2024-01-11T09:30:29;4.93;;;3.37;;
6269;SDS011;3168;51.684;6.954;2024-01-11T09:32:55;8.77;;;7.87;;
6269;SDS011;3168;51.684;6.954;2024-01-11T09:35:21;7.20;;;6.40;;
6269;SDS011;3168;51.684;6.954;2024-01-11T09:37:47;23.03;;;6.50;;
6269;SDS011;3168;51.684;6.954;2024-01-11T09:40:20;9.90;;;7.07;;
6269;SDS011;3168;51.684;6.954;2024-01-11T09:42:46;5.50;;;4.80;;
6269;SDS011;3168;51.684;6.954;2024-01-11T09:45:13;11.00;;;8.70;;
6269;SDS011;3168;51.684;6.954;2024-01-11T09:47:39;9.53;;;8.40;;
6269;SDS011;3168;51.684;6.954;2024-01-11T09:50:05;12.97;;;8.87;;
6269;SDS011;3168;51.684;6.954;2024-01-11T09:52:32;15.50;;;9.30;;
6269;SDS011;3168;51.684;6.954;2024-01-11T09:54:58;13.70;;;7.50;;
6269;SDS011;3168;51.684;6.954;2024-01-11T09:57:26;6.53;;;5.93;;
6269;SDS011;3168;51.684;6.954;2024-01-11T09:59:51;12.67;;;8.63;;
6269;SDS011;3168;51.684;6.954;2024-01-11T10:02:16;16.03;;;8.57;;
6269;SDS011;3168;51.684;6.954;2024-01-11T10:04:50;13.17;;;7.93;;
6269;SDS011;3168;51.684;6.954;2024-01-11T10:07:15;12.77;;;9.30;;
6269;SDS011;3168;51.684;6.954;2024-01-11T10:09:42;10.13;;;7.50;;
6269;SDS011;3168;51.684;6.954;2024-01-11T10:12:08;9.07;;;5.40;;
6269;SDS011;3168;51.684;6.954;2024-01-11T10:14:34;13.97;;;7.47;;
6269;SDS011;3168;51.684;6.954;2024-01-11T10:17:00;11.38;;;7.62;;
6269;SDS011;3168;51.684;6.954;2024-01-11T10:19:26;10.60;;;7.50;;
6269;SDS011;3168;51.684;6.954;2024-01-11T10:21:52;9.17;;;7.80;;
6269;SDS011;3168;51.684;6.954;2024-01-11T10:24:18;6.50;;;5.90;;
6269;SDS011;3168;51.684;6.954;2024-01-11T10:26:43;12.37;;;7.37;;
6269;SDS011;3168;51.684;6.954;2024-01-11T10:29:09;15.17;;;10.17;;
6269;SDS011;3168;51.684;6.954;2024-01-11T10:31:35;11.90;;;9.80;;
6269;SDS011;3168;51.684;6.954;2024-01-11T10:34:01;10.17;;;7.97;;
6269;SDS011;3168;51.684;6.954;2024-01-11T10:36:30;19.97;;;8.53;;
6269;SDS011;3168;51.684;6.954;2024-01-11T10:38:53;13.03;;;8.50;;
6269;SDS011;3168;51.684;6.954;2024-01-11T10:41:19;16.70;;;7.40;;
6269;SDS011;3168;51.684;6.954;2024-01-11T10:43:45;11.40;;;7.80;;
6269;SDS011;3168;51.684;6.954;2024-01-11T10:46:11;5.83;;;4.77;;
6269;SDS011;3168;51.684;6.954;2024-01-11T10:48:37;8.07;;;6.27;;
6269;SDS011;3168;51.684;6.954;2024-01-11T10:51:03;12.90;;;7.50;;
6269;SDS011;3168;51.684;6.954;2024-01-11T10:53:31;8.80;;;6.30;;
6269;SDS011;3168;51.684;6.954;2024-01-11T10:55:57;14.77;;;7.90;;
6269;SDS011;3168;51.684;6.954;2024-01-11T10:58:23;10.70;;;7.77;;
6269;SDS011;3168;51.684;6.954;2024-01-11T11:00:49;24.67;;;11.93;;
6269;SDS011;3168;51.684;6.954;2024-01-11T11:03:14;11.87;;;8.20;;
6269;SDS011;3168;51.684;6.954;2024-01-11T11:05:41;8.63;;;7.50;;
6269;SDS011;3168;51.684;6.954;2024-01-11T11:08:07;14.17;;;8.53;;
6269;SDS011;3168;51.684;6.954;2024-01-11T11:10:33;19.67;;;7.73;;
6269;SDS011;3168;51.684;6.954;2024-01-11T11:12:59;14.17;;;8.33;;
6269;SDS011;3168;51.684;6.954;2024-01-11T11:15:26;12.83;;;8.73;;
6269;SDS011;3168;51.684;6.954;2024-01-11T11:17:53;17.93;;;8.27;;
6269;SDS011;3168;51.684;6.954;2024-01-11T11:20:19;18.37;;;9.80;;
6269;SDS011;3168;51.684;6.954;2024-01-11T11:22:49;14.53;;;8.90;;
6269;SDS011;3168;51.684;6.954;2024-01-11T11:27:49;19.27;;;9.87;;
6269;SDS011;3168;51.684;6.954;2024-01-11T11:30:15;11.17;;;8.40;;
6269;SDS011;3168;51.684;6.954;2024-01-11T11:32:43;8.00;;;7.20;;
6269;SDS011;3168;51.684;6.954;2024-01-11T11:35:07;8.07;;;7.07;;
6269;SDS011;3168;51.684;6.954;2024-01-11T11:37:36;9.43;;;6.63;;
6269;SDS011;3168;51.684;6.954;2024-01-11T11:39:59;13.83;;;8.43;;
6269;SDS011;3168;51.684;6.954;2024-01-11T11:42:25;11.13;;;7.97;;
6269;SDS011;3168;51.684;6.954;2024-01-11T11:44:51;6.80;;;5.40;;
6269;SDS011;3168;51.684;6.954;2024-01-11T11:47:18;12.27;;;8.30;;
6269;SDS011;3168;51.684;6.954;2024-01-11T11:52:18;21.97;;;8.70;;
6269;SDS011;3168;51.684;6.954;2024-01-11T11:54:44;10.67;;;7.57;;
6269;SDS011;3168;51.684;6.954;2024-01-11T11:57:10;12.80;;;6.70;;
6269;SDS011;3168;51.684;6.954;2024-01-11T11:59:36;15.23;;;8.33;;
6269;SDS011;3168;51.684;6.954;2024-01-11T12:02:01;11.00;;;7.57;;
6269;SDS011;3168;51.684;6.954;2024-01-11T12:04:28;7.90;;;6.57;;
6269;SDS011;3168;51.684;6.954;2024-01-11T12:06:53;13.20;;;7.70;;
6269;SDS011;3168;51.684;6.954;2024-01-11T12:09:19;8.93;;;6.00;;
6269;SDS011;3168;51.684;6.954;2024-01-11T12:11:45;13.17;;;7.23;;
6269;SDS011;3168;51.684;6.954;2024-01-11T12:14:11;9.23;;;6.53;;
6269;SDS011;3168;51.684;6.954;2024-01-11T12:16:37;11.20;;;6.60;;
6269;SDS011;3168;51.684;6.954;2024-01-11T12:19:03;13.50;;;7.00;;
6269;SDS011;3168;51.684;6.954;2024-01-11T12:21:29;15.47;;;7.40;;
6269;SDS011;3168;51.684;6.954;2024-01-11T12:23:55;6.67;;;6.00;;
6269;SDS011;3168;51.684;6.954;2024-01-11T12:26:21;16.00;;;7.73;;
6269;SDS011;3168;51.684;6.954;2024-01-11T12:28:46;20.53;;;7.20;;
6269;SDS011;3168;51.684;6.954;2024-01-11T12:31:12;11.13;;;7.53;;
6269;SDS011;3168;51.684;6.954;2024-01-11T12:33:38;11.07;;;6.37;;
6269;SDS011;3168;51.684;6.954;2024-01-11T12:36:06;8.23;;;7.30;;
6269;SDS011;3168;51.684;6.954;2024-01-11T12:38:31;11.50;;;4.97;;
6269;SDS011;3168;51.684;6.954;2024-01-11T12:40:57;12.13;;;7.40;;
6269;SDS011;3168;51.684;6.954;2024-01-11T12:43:23;6.07;;;5.13;;
6269;SDS011;3168;51.684;6.954;2024-01-11T12:45:49;4.63;;;4.20;;
6269;SDS011;3168;51.684;6.954;2024-01-11T12:48:15;10.57;;;7.00;;
6269;SDS011;3168;51.684;6.954;2024-01-11T12:50:41;8.90;;;6.63;;
6269;SDS011;3168;51.684;6.954;2024-01-11T12:53:08;8.20;;;5.47;;
6269;SDS011;3168;51.684;6.954;2024-01-11T12:55:35;24.83;;;6.90;;
6269;SDS011;3168;51.684;6.954;2024-01-11T12:58:06;8.13;;;7.03;;
6269;SDS011;3168;51.684;6.954;2024-01-11T13:00:32;10.20;;;7.10;;
6269;SDS011;3168;51.684;6.954;2024-01-11T13:02:58;10.60;;;7.37;;
6269;SDS011;3168;51.684;6.954;2024-01-11T13:05:23;8.00;;;6.33;;
6269;SDS011;3168;51.684;6.954;2024-01-11T13:07:49;9.87;;;5.20;;
6269;SDS011;3168;51.684;6.954;2024-01-11T13:10:15;9.03;;;5.73;;
6269;SDS011;3168;51.684;6.954;2024-01-11T13:12:41;10.93;;;6.30;;
6269;SDS011;3168;51.684;6.954;2024-01-11T13:15:07;7.70;;;5.77;;
6269;SDS011;3168;51.684;6.954;2024-01-11T13:17:33;6.62;;;4.57;;
6269;SDS011;3168;51.684;6.954;2024-01-11T13:19:59;5.10;;;3.90;;
6269;SDS011;3168;51.684;6.954;2024-01-11T13:22:25;3.10;;;2.90;;
6269;SDS011;3168;51.684;6.954;2024-01-11T13:24:51;3.30;;;3.10;;
6269;SDS011;3168;51.684;6.954;2024-01-11T13:27:17;2.77;;;2.50;;
6269;SDS011;3168;51.684;6.954;2024-01-11T13:29:43;2.83;;;2.63;;
6269;SDS011;3168;51.684;6.954;2024-01-11T13:32:09;3.13;;;2.83;;
6269;SDS011;3168;51.684;6.954;2024-01-11T13:34:35;2.87;;;2.67;;
6269;SDS011;3168;51.684;6.954;2024-01-11T13:37:01;3.70;;;1.70;;
6269;SDS011;3168;51.684;6.954;2024-01-11T13:39:27;2.97;;;2.03;;
6269;SDS011;3168;51.684;6.954;2024-01-11T13:41:53;4.80;;;2.17;;
6269;SDS011;3168;51.684;6.954;2024-01-11T13:44:18;1.90;;;1.80;;
6269;SDS011;3168;51.684;6.954;2024-01-11T13:46:44;5.87;;;4.70;;
6269;SDS011;3168;51.684;6.954;2024-01-11T13:49:10;1.30;;;1.30;;
6269;SDS011;3168;51.684;6.954;2024-01-11T13:51:36;2.87;;;2.23;;
6269;SDS011;3168;51.684;6.954;2024-01-11T13:54:02;3.23;;;1.63;;
6269;SDS011;3168;51.684;6.954;2024-01-11T13:56:28;3.10;;;2.90;;
6269;SDS011;3168;51.684;6.954;2024-01-11T13:58:54;1.40;;;1.30;;
6269;SDS011;3168;51.684;6.954;2024-01-11T14:01:20;1.57;;;1.50;;
6269;SDS011;3168;51.684;6.954;2024-01-11T14:03:46;1.43;;;1.33;;
6269;SDS011;3168;51.684;6.954;2024-01-11T14:06:12;1.63;;;1.53;;
6269;SDS011;3168;51.684;6.954;2024-01-11T14:08:38;1.53;;;1.17;;
6269;SDS011;3168;51.684;6.954;2024-01-11T14:11:04;1.30;;;1.30;;
6269;SDS011;3168;51.684;6.954;2024-01-11T14:13:30;1.70;;;1.60;;
6269;SDS011;3168;51.684;6.954;2024-01-11T14:15:56;1.33;;;1.33;;
6269;SDS011;3168;51.684;6.954;2024-01-11T14:18:22;1.70;;;1.60;;
6269;SDS011;3168;51.684;6.954;2024-01-11T14:20:48;2.00;;;2.00;;
6269;SDS011;3168;51.684;6.954;2024-01-11T14:23:14;1.47;;;1.47;;
6269;SDS011;3168;51.684;6.954;2024-01-11T14:25:40;1.17;;;0.97;;
6269;SDS011;3168;51.684;6.954;2024-01-11T14:28:06;2.40;;;2.27;;
6269;SDS011;3168;51.684;6.954;2024-01-11T14:30:32;2.37;;;2.20;;
6269;SDS011;3168;51.684;6.954;2024-01-11T14:32:58;1.17;;;1.07;;
6269;SDS011;3168;51.684;6.954;2024-01-11T14:35:23;1.00;;;1.00;;
6269;SDS011;3168;51.684;6.954;2024-01-11T14:37:49;2.97;;;1.50;;
6269;SDS011;3168;51.684;6.954;2024-01-11T14:40:15;1.63;;;1.27;;
6269;SDS011;3168;51.684;6.954;2024-01-11T14:42:41;1.43;;;1.40;;
6269;SDS011;3168;51.684;6.954;2024-01-11T14:45:07;0.97;;;0.97;;
6269;SDS011;3168;51.684;6.954;2024-01-11T14:47:34;5.50;;;2.20;;
6269;SDS011;3168;51.684;6.954;2024-01-11T14:49:59;1.80;;;1.70;;
6269;SDS011;3168;51.684;6.954;2024-01-11T14:52:25;2.90;;;2.67;;
6269;SDS011;3168;51.684;6.954;2024-01-11T14:54:51;2.07;;;1.97;;
6269;SDS011;3168;51.684;6.954;2024-01-11T14:57:17;1.33;;;1.33;;
6269;SDS011;3168;51.684;6.954;2024-01-11T14:59:43;2.70;;;2.50;;
6269;SDS011;3168;51.684;6.954;2024-01-11T15:02:09;2.97;;;1.63;;
6269;SDS011;3168;51.684;6.954;2024-01-11T15:04:35;3.43;;;1.57;;
6269;SDS011;3168;51.684;6.954;2024-01-11T15:07:01;2.60;;;2.43;;
6269;SDS011;3168;51.684;6.954;2024-01-11T15:09:27;4.93;;;2.10;;
6269;SDS011;3168;51.684;6.954;2024-01-11T15:11:53;1.90;;;1.90;;